createdAt,value
2019-01-13T00:00:24.476Z,1002.24
2019-01-13T00:01:24.423Z,1002.24
2019-01-13T00:02:24.423Z,1002.19
2019-01-13T00:03:24.395Z,1002.24
2019-01-13T00:04:24.391Z,1002.25
2019-01-13T00:05:24.395Z,1002.17
2019-01-13T00:06:24.404Z,1002.18
2019-01-13T00:07:24.369Z,1002.14
2019-01-13T00:08:24.379Z,1002.10
2019-01-13T00:09:24.332Z,1002.12
2019-01-13T00:10:24.331Z,1002.08
2019-01-13T00:11:24.336Z,1002.10
2019-01-13T00:12:24.332Z,1002.10
2019-01-13T00:13:24.302Z,1002.06
2019-01-13T00:14:24.278Z,1002.08
2019-01-13T00:15:24.291Z,1002.09
2019-01-13T00:16:24.275Z,1002.07
2019-01-13T00:17:24.263Z,1002.05
2019-01-13T00:18:24.235Z,1002.02
2019-01-13T00:19:24.244Z,1002.03
2019-01-13T00:20:24.215Z,1002.05
2019-01-13T00:21:24.200Z,1002.05
2019-01-13T00:22:24.224Z,1002.10
2019-01-13T00:23:24.189Z,1002.11
2019-01-13T00:24:24.181Z,1002.10
2019-01-13T00:25:24.162Z,1002.10
2019-01-13T00:26:24.151Z,1002.11
2019-01-13T00:27:24.162Z,1002.12
2019-01-13T00:28:24.139Z,1002.13
2019-01-13T00:29:24.118Z,1002.17
2019-01-13T00:30:24.114Z,1002.19
2019-01-13T00:31:24.096Z,1002.20
2019-01-13T00:32:24.103Z,1002.18
2019-01-13T00:33:24.080Z,1002.20
2019-01-13T00:34:24.064Z,1002.21
2019-01-13T00:35:24.062Z,1002.19
2019-01-13T00:36:24.059Z,1002.20
2019-01-13T00:37:24.042Z,1002.22
2019-01-13T00:38:24.013Z,1002.20
2019-01-13T00:39:24.028Z,1002.20
2019-01-13T00:40:24.041Z,1002.21
2019-01-13T00:41:23.988Z,1002.24
2019-01-13T00:42:24.000Z,1002.25
2019-01-13T00:43:23.977Z,1002.23
2019-01-13T00:44:23.950Z,1002.26
2019-01-13T00:45:23.943Z,1002.26
2019-01-13T00:46:23.924Z,1002.26
2019-01-13T00:47:23.933Z,1002.29
2019-01-13T00:48:23.954Z,1002.29
2019-01-13T00:49:23.913Z,1002.31
2019-01-13T00:50:23.879Z,1002.24
2019-01-13T00:51:23.872Z,1002.25
2019-01-13T00:52:23.867Z,1002.26
2019-01-13T00:53:23.882Z,1002.27
2019-01-13T00:54:23.859Z,1002.28
2019-01-13T00:55:23.831Z,1002.30
2019-01-13T00:56:23.846Z,1002.33
2019-01-13T00:57:23.820Z,1002.30
2019-01-13T00:58:23.808Z,1002.37
2019-01-13T00:59:23.804Z,1002.37
2019-01-13T01:00:26.820Z,1002.36
2019-01-13T01:01:23.763Z,1002.40
2019-01-13T01:02:23.753Z,1002.41
2019-01-13T01:03:23.772Z,1002.41
2019-01-13T01:04:23.732Z,1002.39
2019-01-13T01:05:23.732Z,1002.39
2019-01-13T01:06:23.740Z,1002.40
2019-01-13T01:07:23.696Z,1002.37
2019-01-13T01:08:23.701Z,1002.42
2019-01-13T01:09:23.685Z,1002.39
2019-01-13T01:10:23.670Z,1002.43
2019-01-13T01:11:23.673Z,1002.43
2019-01-13T01:12:23.641Z,1002.45
2019-01-13T01:13:23.651Z,1002.47
2019-01-13T01:14:23.641Z,1002.48
2019-01-13T01:15:23.615Z,1002.53
2019-01-13T01:16:23.603Z,1002.48
2019-01-13T01:17:23.612Z,1002.47
2019-01-13T01:18:23.635Z,1002.51
2019-01-13T01:19:23.578Z,1002.60
2019-01-13T01:20:23.561Z,1002.54
2019-01-13T01:21:23.550Z,1002.52
2019-01-13T01:22:23.531Z,1002.52
2019-01-13T01:23:23.537Z,1002.51
2019-01-13T01:24:23.521Z,1002.51
2019-01-13T01:25:23.508Z,1002.50
2019-01-13T01:26:23.507Z,1002.52
2019-01-13T01:27:23.509Z,1002.53
2019-01-13T01:28:23.466Z,1002.58
2019-01-13T01:29:23.478Z,1002.57
2019-01-13T01:30:23.451Z,1002.63
2019-01-13T01:31:23.446Z,1002.67
2019-01-13T01:32:23.431Z,1002.62
2019-01-13T01:33:26.019Z,1002.63
2019-01-13T01:34:23.411Z,1002.61
2019-01-13T01:35:23.418Z,1002.61
2019-01-13T01:36:23.383Z,1002.65
2019-01-13T01:37:23.368Z,1002.63
2019-01-13T01:38:23.366Z,1002.63
2019-01-13T01:39:23.369Z,1002.59
2019-01-13T01:40:23.351Z,1002.60
2019-01-13T01:41:23.328Z,1002.61
2019-01-13T01:42:23.322Z,1002.59
2019-01-13T01:43:23.300Z,1002.60
2019-01-13T01:44:23.307Z,1002.60
2019-01-13T01:45:23.318Z,1002.57
2019-01-13T01:46:23.284Z,1002.57
2019-01-13T01:47:23.268Z,1002.62
2019-01-13T01:48:23.249Z,1002.57
2019-01-13T01:49:23.261Z,1002.62
2019-01-13T01:50:23.236Z,1002.59
2019-01-13T01:51:23.223Z,1002.63
2019-01-13T01:52:23.216Z,1002.61
2019-01-13T01:53:23.275Z,1002.59
2019-01-13T01:54:23.192Z,1002.52
2019-01-13T01:55:23.185Z,1002.55
2019-01-13T01:56:23.166Z,1002.55
2019-01-13T01:57:23.150Z,1002.51
2019-01-13T01:58:23.154Z,1002.52
2019-01-13T01:59:23.135Z,1002.53
2019-01-13T02:00:23.127Z,1002.55
2019-01-13T02:01:23.111Z,1002.44
2019-01-13T02:02:23.094Z,1002.44
2019-01-13T02:03:23.127Z,1002.41
2019-01-13T02:04:23.090Z,1002.41
2019-01-13T02:05:23.083Z,1002.43
2019-01-13T02:06:23.116Z,1002.39
2019-01-13T02:07:23.047Z,1002.43
2019-01-13T02:08:23.066Z,1002.41
2019-01-13T02:09:23.021Z,1002.39
2019-01-13T02:10:23.020Z,1002.40
2019-01-13T02:11:23.003Z,1002.38
2019-01-13T02:12:22.997Z,1002.41
2019-01-13T02:13:22.988Z,1002.45
2019-01-13T02:14:22.976Z,1002.47
2019-01-13T02:15:23.002Z,1002.44
2019-01-13T02:16:22.960Z,1002.42
2019-01-13T02:17:22.928Z,1002.41
2019-01-13T02:18:22.925Z,1002.38
2019-01-13T02:19:22.922Z,1002.34
2019-01-13T02:20:22.922Z,1002.32
2019-01-13T02:21:22.900Z,1002.28
2019-01-13T02:22:22.881Z,1002.23
2019-01-13T02:23:22.865Z,1002.28
2019-01-13T02:24:22.877Z,1002.30
2019-01-13T02:25:22.883Z,1002.29
2019-01-13T02:26:22.857Z,1002.25
2019-01-13T02:27:22.823Z,1002.27
2019-01-13T02:28:22.814Z,1002.18
2019-01-13T02:29:22.797Z,1002.26
2019-01-13T02:30:22.816Z,1002.25
2019-01-13T02:31:22.787Z,1002.25
2019-01-13T02:32:22.764Z,1002.21
2019-01-13T02:33:22.770Z,1002.17
2019-01-13T02:34:22.751Z,1002.21
2019-01-13T02:35:22.760Z,1002.19
2019-01-13T02:36:22.731Z,1002.16
2019-01-13T02:37:22.737Z,1002.14
2019-01-13T02:38:22.704Z,1002.11
2019-01-13T02:39:22.688Z,1002.11
2019-01-13T02:40:22.689Z,1002.14
2019-01-13T02:41:22.706Z,1002.21
2019-01-13T02:42:22.657Z,1002.19
2019-01-13T02:43:22.656Z,1002.22
2019-01-13T02:44:22.656Z,1002.21
2019-01-13T02:45:22.625Z,1002.24
2019-01-13T02:46:22.651Z,1002.25
2019-01-13T02:47:22.602Z,1002.22
2019-01-13T02:48:22.594Z,1002.26
2019-01-13T02:49:22.609Z,1002.25
2019-01-13T02:50:22.580Z,1002.29
2019-01-13T02:51:22.571Z,1002.26
2019-01-13T02:52:22.548Z,1002.25
2019-01-13T02:53:22.543Z,1002.26
2019-01-13T02:54:22.537Z,1002.23
2019-01-13T02:55:22.511Z,1002.18
2019-01-13T02:56:22.520Z,1002.21
2019-01-13T02:57:22.535Z,1002.16
2019-01-13T02:58:22.479Z,1002.21
2019-01-13T02:59:22.494Z,1002.21
2019-01-13T03:00:22.463Z,1002.18
2019-01-13T03:01:22.471Z,1002.22
2019-01-13T03:02:22.450Z,1002.20
2019-01-13T03:03:22.438Z,1002.17
2019-01-13T03:04:22.419Z,1002.21
2019-01-13T03:05:22.412Z,1002.18
2019-01-13T03:06:22.410Z,1002.25
2019-01-13T03:07:22.385Z,1002.16
2019-01-13T03:08:22.369Z,1002.20
2019-01-13T03:09:22.368Z,1002.15
2019-01-13T03:10:22.372Z,1002.14
2019-01-13T03:11:22.359Z,1002.12
2019-01-13T03:12:22.327Z,1002.12
2019-01-13T03:13:22.318Z,1002.13
2019-01-13T03:14:22.318Z,1002.09
2019-01-13T03:15:22.298Z,1002.12
2019-01-13T03:16:22.318Z,1002.15
2019-01-13T03:17:22.294Z,1002.16
2019-01-13T03:18:22.269Z,1002.14
2019-01-13T03:19:22.258Z,1002.13
2019-01-13T03:20:22.262Z,1002.14
2019-01-13T03:21:22.239Z,1002.13
2019-01-13T03:22:22.270Z,1002.10
2019-01-13T03:23:22.204Z,1002.11
2019-01-13T03:24:22.216Z,1002.11
2019-01-13T03:25:22.219Z,1002.05
2019-01-13T03:26:22.176Z,1002.03
2019-01-13T03:27:22.183Z,1001.99
2019-01-13T03:28:22.161Z,1002.02
2019-01-13T03:29:22.161Z,1001.98
2019-01-13T03:30:22.130Z,1001.99
2019-01-13T03:31:22.120Z,1001.95
2019-01-13T03:32:22.123Z,1001.94
2019-01-13T03:33:22.108Z,1001.92
2019-01-13T03:34:22.091Z,1001.89
2019-01-13T03:35:22.086Z,1001.86
2019-01-13T03:36:22.074Z,1001.86
2019-01-13T03:37:22.096Z,1001.89
2019-01-13T03:38:22.071Z,1001.87
2019-01-13T03:39:22.036Z,1001.84
2019-01-13T03:40:22.030Z,1001.85
2019-01-13T03:41:22.040Z,1001.78
2019-01-13T03:42:22.020Z,1001.76
2019-01-13T03:43:22.003Z,1001.75
2019-01-13T03:44:21.979Z,1001.74
2019-01-13T03:45:21.973Z,1001.75
2019-01-13T03:46:21.961Z,1001.76
2019-01-13T03:47:21.952Z,1001.76
2019-01-13T03:48:21.948Z,1001.79
2019-01-13T03:49:21.923Z,1001.80
2019-01-13T03:50:21.922Z,1001.75
2019-01-13T03:51:21.946Z,1001.71
2019-01-13T03:52:21.904Z,1001.67
2019-01-13T03:53:21.901Z,1001.60
2019-01-13T03:54:21.875Z,1001.64
2019-01-13T03:55:21.884Z,1001.70
2019-01-13T03:56:21.870Z,1001.69
2019-01-13T03:57:21.880Z,1001.65
2019-01-13T03:58:21.852Z,1001.59
2019-01-13T03:59:21.829Z,1001.52
2019-01-13T04:00:21.808Z,1001.42
2019-01-13T04:01:21.857Z,1001.40
2019-01-13T04:02:21.830Z,1001.42
2019-01-13T04:03:21.787Z,1001.41
2019-01-13T04:04:21.790Z,1001.46
2019-01-13T04:05:21.762Z,1001.54
2019-01-13T04:06:21.803Z,1001.60
2019-01-13T04:07:21.729Z,1001.59
2019-01-13T04:08:21.723Z,1001.65
2019-01-13T04:09:21.727Z,1001.57
2019-01-13T04:10:21.729Z,1001.60
2019-01-13T04:11:21.701Z,1001.55
2019-01-13T04:12:21.672Z,1001.56
2019-01-13T04:13:21.740Z,1001.59
2019-01-13T04:14:21.650Z,1001.54
2019-01-13T04:15:21.640Z,1001.57
2019-01-13T04:16:21.624Z,1001.54
2019-01-13T04:17:21.626Z,1001.50
2019-01-13T04:18:21.615Z,1001.52
2019-01-13T04:19:21.608Z,1001.47
2019-01-13T04:20:21.594Z,1001.46
2019-01-13T04:21:21.599Z,1001.46
2019-01-13T04:22:21.573Z,1001.43
2019-01-13T04:23:21.581Z,1001.48
2019-01-13T04:24:21.553Z,1001.47
2019-01-13T04:25:21.529Z,1001.47
2019-01-13T04:26:21.526Z,1001.42
2019-01-13T04:27:21.526Z,1001.48
2019-01-13T04:28:21.548Z,1001.49
2019-01-13T04:29:21.484Z,1001.51
2019-01-13T04:30:21.475Z,1001.52
2019-01-13T04:31:26.630Z,1001.51
2019-01-13T04:32:22.450Z,1001.49
2019-01-13T04:33:21.463Z,1001.45
2019-01-13T04:34:21.441Z,1001.48
2019-01-13T04:35:21.426Z,1001.51
2019-01-13T04:36:21.420Z,1001.60
2019-01-13T04:37:21.403Z,1001.54
2019-01-13T04:38:21.409Z,1001.53
2019-01-13T04:39:21.380Z,1001.59
2019-01-13T04:40:21.385Z,1001.55
2019-01-13T04:41:21.357Z,1001.52
2019-01-13T04:42:21.340Z,1001.49
2019-01-13T04:43:21.345Z,1001.46
2019-01-13T04:44:21.346Z,1001.45
2019-01-13T04:45:21.303Z,1001.47
2019-01-13T04:46:21.297Z,1001.50
2019-01-13T04:47:21.320Z,1001.52
2019-01-13T04:48:21.288Z,1001.53
2019-01-13T04:49:21.271Z,1001.54
2019-01-13T04:50:21.268Z,1001.49
2019-01-13T04:51:21.242Z,1001.43
2019-01-13T04:52:21.224Z,1001.46
2019-01-13T04:53:21.213Z,1001.45
2019-01-13T04:54:21.220Z,1001.46
2019-01-13T04:55:21.226Z,1001.45
2019-01-13T04:56:21.196Z,1001.44
2019-01-13T04:57:21.187Z,1001.41
2019-01-13T04:58:21.164Z,1001.40
2019-01-13T04:59:21.173Z,1001.38
2019-01-13T05:00:21.163Z,1001.36
2019-01-13T05:01:21.139Z,1001.28
2019-01-13T05:02:21.113Z,1001.34
2019-01-13T05:03:21.119Z,1001.31
2019-01-13T05:04:21.117Z,1001.33
2019-01-13T05:05:21.092Z,1001.30
2019-01-13T05:06:21.084Z,1001.31
2019-01-13T05:07:21.086Z,1001.26
2019-01-13T05:08:21.047Z,1001.25
2019-01-13T05:09:21.061Z,1001.26
2019-01-13T05:10:21.037Z,1001.29
2019-01-13T05:11:21.025Z,1001.28
2019-01-13T05:12:21.016Z,1001.25
2019-01-13T05:13:21.000Z,1001.22
2019-01-13T05:14:21.016Z,1001.23
2019-01-13T05:15:20.973Z,1001.27
2019-01-13T05:16:20.954Z,1001.22
2019-01-13T05:17:20.950Z,1001.20
2019-01-13T05:18:20.959Z,1001.20
2019-01-13T05:19:20.936Z,1001.16
2019-01-13T05:20:20.932Z,1001.12
2019-01-13T05:21:20.912Z,1001.14
2019-01-13T05:22:20.890Z,1001.12
2019-01-13T05:23:20.882Z,1001.06
2019-01-13T05:24:20.877Z,1001.03
2019-01-13T05:25:20.870Z,1000.97
2019-01-13T05:26:20.859Z,1000.94
2019-01-13T05:27:20.834Z,1000.88
2019-01-13T05:28:20.857Z,1000.85
2019-01-13T05:29:20.815Z,1000.85
2019-01-13T05:30:20.837Z,1000.83
2019-01-13T05:31:20.790Z,1000.72
2019-01-13T05:32:20.785Z,1000.74
2019-01-13T05:33:20.771Z,1000.63
2019-01-13T05:34:20.762Z,1000.61
2019-01-13T05:35:20.771Z,1000.59
2019-01-13T05:36:20.736Z,1000.59
2019-01-13T05:37:20.759Z,1000.58
2019-01-13T05:38:20.711Z,1000.62
2019-01-13T05:39:20.700Z,1000.65
2019-01-13T05:40:20.711Z,1000.56
2019-01-13T05:41:20.707Z,1000.55
2019-01-13T05:42:20.669Z,1000.53
2019-01-13T05:43:20.656Z,1000.52
2019-01-13T05:44:20.647Z,1000.50
2019-01-13T05:45:20.648Z,1000.51
2019-01-13T05:46:20.622Z,1000.45
2019-01-13T05:47:20.642Z,1000.45
2019-01-13T05:48:20.611Z,1000.42
2019-01-13T05:49:20.595Z,1000.40
2019-01-13T05:50:20.594Z,1000.38
2019-01-13T05:51:20.578Z,1000.34
2019-01-13T05:52:20.556Z,1000.34
2019-01-13T05:53:20.563Z,1000.38
2019-01-13T05:54:20.556Z,1000.38
2019-01-13T05:55:20.556Z,1000.37
2019-01-13T05:56:20.508Z,1000.41
2019-01-13T05:57:20.516Z,1000.42
2019-01-13T05:58:20.487Z,1000.43
2019-01-13T05:59:20.479Z,1000.42
2019-01-13T06:00:20.490Z,1000.43
2019-01-13T06:01:20.455Z,1000.49
2019-01-13T06:02:20.456Z,1000.43
2019-01-13T06:03:20.451Z,1000.47
2019-01-13T06:04:20.430Z,1000.53
2019-01-13T06:05:20.480Z,1000.47
2019-01-13T06:06:20.407Z,1000.44
2019-01-13T06:07:20.388Z,1000.43
2019-01-13T06:08:20.425Z,1000.42
2019-01-13T06:09:20.368Z,1000.45
2019-01-13T06:10:20.359Z,1000.39
2019-01-13T06:11:20.350Z,1000.31
2019-01-13T06:12:20.347Z,1000.33
2019-01-13T06:13:20.319Z,1000.39
2019-01-13T06:14:20.320Z,1000.37
2019-01-13T06:15:20.308Z,1000.37
2019-01-13T06:16:20.314Z,1000.39
2019-01-13T06:17:20.310Z,1000.36
2019-01-13T06:18:20.281Z,1000.37
2019-01-13T06:19:20.273Z,1000.38
2019-01-13T06:20:20.241Z,1000.36
2019-01-13T06:21:20.245Z,1000.29
2019-01-13T06:22:20.232Z,1000.28
2019-01-13T06:23:20.209Z,1000.26
2019-01-13T06:24:20.216Z,1000.26
2019-01-13T06:25:20.197Z,1000.22
2019-01-13T06:26:20.216Z,1000.18
2019-01-13T06:27:20.193Z,1000.14
2019-01-13T06:28:20.170Z,1000.06
2019-01-13T06:29:20.177Z,1000.11
2019-01-13T06:30:20.162Z,1000.08
2019-01-13T06:31:20.168Z,1000.04
2019-01-13T06:32:20.115Z,1000.05
2019-01-13T06:33:20.098Z,1000.00
2019-01-13T06:34:20.089Z,999.98
2019-01-13T06:35:20.102Z,999.98
2019-01-13T06:36:20.097Z,999.91
2019-01-13T06:37:20.056Z,999.88
2019-01-13T06:38:20.066Z,999.89
2019-01-13T06:39:20.035Z,999.87
2019-01-13T06:40:20.049Z,999.84
2019-01-13T06:41:20.038Z,999.84
2019-01-13T06:42:19.998Z,999.83
2019-01-13T06:43:19.983Z,999.89
2019-01-13T06:44:19.988Z,999.86
2019-01-13T06:45:19.969Z,999.87
2019-01-13T06:46:19.968Z,999.84
2019-01-13T06:47:19.957Z,999.88
2019-01-13T06:48:19.941Z,999.91
2019-01-13T06:49:19.920Z,999.94
2019-01-13T06:50:19.935Z,999.92
2019-01-13T06:51:20.166Z,999.88
2019-01-13T06:52:19.896Z,999.83
2019-01-13T06:53:19.874Z,999.89
2019-01-13T06:54:19.867Z,999.84
2019-01-13T06:55:19.853Z,999.81
2019-01-13T06:56:19.841Z,999.75
2019-01-13T06:57:19.845Z,999.68
2019-01-13T06:58:19.866Z,999.67
2019-01-13T06:59:19.806Z,999.66
2019-01-13T07:00:19.800Z,999.61
2019-01-13T07:01:19.790Z,999.59
2019-01-13T07:02:19.794Z,999.61
2019-01-13T07:03:19.808Z,999.57
2019-01-13T07:04:19.770Z,999.65
2019-01-13T07:05:19.742Z,999.62
2019-01-13T07:06:19.730Z,999.65
2019-01-13T07:07:19.739Z,999.64
2019-01-13T07:08:19.704Z,999.67
2019-01-13T07:09:19.696Z,999.65
2019-01-13T07:10:19.697Z,999.69
2019-01-13T07:11:19.671Z,999.65
2019-01-13T07:12:19.674Z,999.63
2019-01-13T07:13:19.649Z,999.57
2019-01-13T07:14:19.641Z,999.53
2019-01-13T07:15:19.636Z,999.47
2019-01-13T07:16:19.648Z,999.45
2019-01-13T07:17:19.622Z,999.50
2019-01-13T07:18:19.611Z,999.48
2019-01-13T07:19:19.588Z,999.50
2019-01-13T07:20:19.575Z,999.50
2019-01-13T07:21:19.581Z,999.56
2019-01-13T07:22:19.568Z,999.52
2019-01-13T07:23:19.535Z,999.55
2019-01-13T07:24:19.541Z,999.58
2019-01-13T07:25:19.513Z,999.54
2019-01-13T07:26:19.508Z,999.54
2019-01-13T07:27:19.520Z,999.48
2019-01-13T07:28:19.483Z,999.49
2019-01-13T07:29:19.500Z,999.49
2019-01-13T07:30:19.466Z,999.47
2019-01-13T07:31:19.458Z,999.47
2019-01-13T07:32:19.476Z,999.46
2019-01-13T07:33:19.460Z,999.48
2019-01-13T07:34:19.417Z,999.45
2019-01-13T07:35:19.406Z,999.44
2019-01-13T07:36:19.392Z,999.42
2019-01-13T07:37:19.388Z,999.44
2019-01-13T07:38:19.391Z,999.43
2019-01-13T07:39:19.397Z,999.43
2019-01-13T07:40:19.348Z,999.42
2019-01-13T07:41:19.336Z,999.42
2019-01-13T07:42:19.387Z,999.40
2019-01-13T07:43:19.321Z,999.33
2019-01-13T07:44:19.303Z,999.26
2019-01-13T07:45:19.300Z,999.27
2019-01-13T07:46:19.282Z,999.24
2019-01-13T07:47:19.270Z,999.24
2019-01-13T07:48:19.270Z,999.30
2019-01-13T07:49:19.263Z,999.29
2019-01-13T07:50:19.237Z,999.29
2019-01-13T07:51:19.234Z,999.28
2019-01-13T07:52:19.213Z,999.30
2019-01-13T07:53:19.218Z,999.35
2019-01-13T07:54:19.207Z,999.36
2019-01-13T07:55:19.197Z,999.41
2019-01-13T07:56:19.178Z,999.46
2019-01-13T07:57:19.177Z,999.47
2019-01-13T07:58:19.193Z,999.45
2019-01-13T07:59:19.158Z,999.48
2019-01-13T08:00:19.578Z,999.50
2019-01-13T08:01:19.121Z,999.48
2019-01-13T08:02:19.116Z,999.49
2019-01-13T08:03:19.120Z,999.46
2019-01-13T08:04:19.133Z,999.50
2019-01-13T08:05:19.220Z,999.49
2019-01-13T08:06:19.058Z,999.45
2019-01-13T08:07:19.049Z,999.45
2019-01-13T08:08:19.043Z,999.47
2019-01-13T08:09:19.022Z,999.42
2019-01-13T08:10:19.059Z,999.43
2019-01-13T08:11:19.001Z,999.44
2019-01-13T08:12:18.993Z,999.48
2019-01-13T08:13:19.005Z,999.45
2019-01-13T08:14:18.992Z,999.47
2019-01-13T08:15:18.987Z,999.45
2019-01-13T08:16:18.959Z,999.44
2019-01-13T08:17:18.942Z,999.48
2019-01-13T08:18:18.945Z,999.40
2019-01-13T08:19:18.929Z,999.39
2019-01-13T08:20:18.923Z,999.41
2019-01-13T08:21:18.907Z,999.38
2019-01-13T08:22:18.887Z,999.31
2019-01-13T08:23:18.887Z,999.30
2019-01-13T08:24:18.917Z,999.31
2019-01-13T08:25:18.852Z,999.26
2019-01-13T08:26:18.838Z,999.25
2019-01-13T08:27:18.837Z,999.25
2019-01-13T08:28:18.832Z,999.30
2019-01-13T08:29:18.801Z,999.28
2019-01-13T08:30:18.795Z,999.22
2019-01-13T08:31:18.787Z,999.22
2019-01-13T08:32:24.821Z,999.22
2019-01-13T08:33:19.857Z,999.26
2019-01-13T08:34:18.769Z,999.30
2019-01-13T08:35:18.765Z,999.31
2019-01-13T08:36:18.730Z,999.33
2019-01-13T08:37:18.725Z,999.33
2019-01-13T08:38:18.729Z,999.36
2019-01-13T08:39:18.731Z,999.35
2019-01-13T08:40:18.683Z,999.33
2019-01-13T08:41:18.668Z,999.38
2019-01-13T08:42:18.655Z,999.39
2019-01-13T08:43:18.661Z,999.35
2019-01-13T08:44:18.660Z,999.36
2019-01-13T08:45:18.636Z,999.36
2019-01-13T08:46:18.609Z,999.35
2019-01-13T08:47:18.606Z,999.30
2019-01-13T08:48:18.599Z,999.24
2019-01-13T08:49:18.618Z,999.23
2019-01-13T08:50:18.580Z,999.16
2019-01-13T08:51:18.560Z,999.13
2019-01-13T08:52:18.553Z,999.14
2019-01-13T08:53:18.552Z,999.13
2019-01-13T08:54:18.535Z,999.15
2019-01-13T08:55:18.516Z,999.19
2019-01-13T08:56:18.500Z,999.13
2019-01-13T08:57:18.501Z,999.14
2019-01-13T08:58:18.482Z,999.13
2019-01-13T08:59:18.526Z,999.13
2019-01-13T09:00:18.457Z,999.14
2019-01-13T09:01:18.498Z,999.11
2019-01-13T09:02:18.434Z,999.14
2019-01-13T09:03:18.496Z,999.12
2019-01-13T09:04:18.485Z,999.12
2019-01-13T09:05:18.412Z,999.12
2019-01-13T09:06:18.397Z,999.12
2019-01-13T09:07:18.378Z,999.11
2019-01-13T09:08:18.375Z,999.11
2019-01-13T09:09:18.376Z,999.04
2019-01-13T09:10:18.349Z,999.03
2019-01-13T09:11:18.342Z,999.01
2019-01-13T09:12:18.330Z,999.01
2019-01-13T09:13:18.318Z,999.00
2019-01-13T09:14:18.305Z,999.05
2019-01-13T09:15:18.319Z,998.99
2019-01-13T09:16:18.283Z,999.05
2019-01-13T09:17:18.265Z,999.00
2019-01-13T09:18:18.258Z,999.00
2019-01-13T09:19:18.258Z,998.97
2019-01-13T09:20:18.251Z,998.93
2019-01-13T09:21:18.230Z,998.89
2019-01-13T09:22:18.215Z,998.90
2019-01-13T09:23:18.205Z,998.88
2019-01-13T09:24:18.192Z,998.83
2019-01-13T09:25:18.187Z,998.82
2019-01-13T09:26:18.169Z,998.73
2019-01-13T09:27:18.168Z,998.78
2019-01-13T09:28:18.147Z,998.76
2019-01-13T09:29:18.137Z,998.72
2019-01-13T09:30:18.149Z,998.72
2019-01-13T09:31:18.129Z,998.71
2019-01-13T09:32:18.099Z,998.69
2019-01-13T09:33:18.390Z,998.65
2019-01-13T09:34:18.077Z,998.66
2019-01-13T09:35:18.077Z,998.56
2019-01-13T09:36:18.065Z,998.50
2019-01-13T09:37:18.046Z,998.50
2019-01-13T09:38:18.037Z,998.45
2019-01-13T09:39:18.023Z,998.46
2019-01-13T09:40:18.021Z,998.43
2019-01-13T09:41:18.021Z,998.42
2019-01-13T09:42:17.990Z,998.40
2019-01-13T09:43:17.983Z,998.37
2019-01-13T09:44:17.969Z,998.42
2019-01-13T09:45:17.985Z,998.33
2019-01-13T09:46:17.949Z,998.33
2019-01-13T09:47:17.944Z,998.28
2019-01-13T09:48:17.923Z,998.24
2019-01-13T09:49:17.911Z,998.17
2019-01-13T09:50:17.920Z,998.07
2019-01-13T09:51:17.891Z,998.07
2019-01-13T09:52:17.879Z,998.13
2019-01-13T09:53:17.879Z,998.14
2019-01-13T09:54:17.880Z,998.10
2019-01-13T09:55:17.851Z,998.08
2019-01-13T09:56:17.842Z,998.05
2019-01-13T09:57:18.024Z,998.10
2019-01-13T09:58:17.816Z,998.09
2019-01-13T09:59:17.819Z,998.07
2019-01-13T10:00:17.792Z,998.08
2019-01-13T10:01:17.790Z,997.99
2019-01-13T10:02:17.810Z,998.05
2019-01-13T10:03:17.757Z,997.94
2019-01-13T10:04:17.751Z,997.96
2019-01-13T10:05:17.735Z,997.90
2019-01-13T10:06:17.741Z,997.93
2019-01-13T10:07:17.714Z,997.92
2019-01-13T10:08:17.700Z,997.90
2019-01-13T10:09:17.696Z,997.89
2019-01-13T10:10:17.694Z,997.92
2019-01-13T10:11:17.705Z,997.90
2019-01-13T10:12:17.656Z,997.93
2019-01-13T10:13:17.661Z,997.84
2019-01-13T10:14:17.636Z,997.83
2019-01-13T10:15:17.980Z,997.84
2019-01-13T10:16:17.643Z,997.77
2019-01-13T10:17:17.761Z,997.80
2019-01-13T10:18:17.617Z,997.83
2019-01-13T10:19:17.582Z,997.78
2019-01-13T10:20:17.583Z,997.77
2019-01-13T10:21:17.599Z,997.77
2019-01-13T10:22:17.562Z,997.74
2019-01-13T10:23:17.535Z,997.74
2019-01-13T10:24:17.527Z,997.68
2019-01-13T10:25:17.540Z,997.67
2019-01-13T10:26:17.639Z,997.62
2019-01-13T10:27:17.495Z,997.60
2019-01-13T10:28:17.480Z,997.54
2019-01-13T10:29:17.567Z,997.54
2019-01-13T10:30:17.457Z,997.54
2019-01-13T10:31:17.725Z,997.47
2019-01-13T10:32:17.468Z,997.48
2019-01-13T10:33:17.427Z,997.39
2019-01-13T10:34:17.415Z,997.41
2019-01-13T10:35:17.432Z,997.42
2019-01-13T10:36:17.443Z,997.39
2019-01-13T10:37:17.379Z,997.44
2019-01-13T10:38:17.373Z,997.41
2019-01-13T10:39:17.358Z,997.38
2019-01-13T10:40:17.344Z,997.35
2019-01-13T10:41:17.381Z,997.31
2019-01-13T10:42:17.395Z,997.30
2019-01-13T10:43:17.334Z,997.25
2019-01-13T10:44:18.136Z,997.18
2019-01-13T10:45:17.297Z,997.14
2019-01-13T10:46:17.282Z,997.14
2019-01-13T10:47:17.308Z,997.11
2019-01-13T10:48:17.492Z,997.10
2019-01-13T10:49:17.254Z,997.11
2019-01-13T10:50:17.237Z,997.11
2019-01-13T10:51:17.227Z,997.10
2019-01-13T10:52:17.226Z,997.15
2019-01-13T10:53:17.206Z,997.08
2019-01-13T10:54:17.193Z,997.11
2019-01-13T10:55:17.192Z,997.07
2019-01-13T10:56:17.170Z,997.06
2019-01-13T10:57:17.191Z,997.02
2019-01-13T10:58:17.150Z,997.03
2019-01-13T10:59:17.137Z,997.02
2019-01-13T11:00:17.128Z,997.03
2019-01-13T11:01:17.132Z,997.00
2019-01-13T11:02:17.118Z,997.09
2019-01-13T11:03:17.093Z,997.03
2019-01-13T11:04:17.136Z,996.99
2019-01-13T11:05:17.070Z,996.99
2019-01-13T11:06:17.083Z,996.98
2019-01-13T11:07:17.090Z,996.93
2019-01-13T11:08:17.051Z,996.90
2019-01-13T11:09:17.027Z,996.82
2019-01-13T11:10:17.030Z,996.83
2019-01-13T11:11:17.004Z,996.75
2019-01-13T11:12:17.045Z,996.74
2019-01-13T11:13:16.989Z,996.73
2019-01-13T11:14:16.984Z,996.71
2019-01-13T11:15:21.446Z,996.68
2019-01-13T11:16:16.953Z,996.65
2019-01-13T11:17:16.959Z,996.60
2019-01-13T11:18:16.951Z,996.52
2019-01-13T11:19:16.924Z,996.48
2019-01-13T11:20:16.920Z,996.48
2019-01-13T11:21:16.895Z,996.46
2019-01-13T11:22:17.074Z,996.45
2019-01-13T11:23:16.889Z,996.31
2019-01-13T11:24:16.860Z,996.29
2019-01-13T11:25:16.851Z,996.27
2019-01-13T11:26:16.839Z,996.29
2019-01-13T11:27:16.826Z,996.27
2019-01-13T11:28:16.830Z,996.23
2019-01-13T11:29:16.834Z,996.24
2019-01-13T11:30:16.794Z,996.25
2019-01-13T11:31:16.785Z,996.23
2019-01-13T11:32:16.792Z,996.16
2019-01-13T11:33:16.780Z,996.16
2019-01-13T11:34:16.756Z,996.14
2019-01-13T11:35:16.740Z,996.16
2019-01-13T11:36:16.731Z,996.21
2019-01-13T11:37:16.720Z,996.28
2019-01-13T11:38:16.723Z,996.33
2019-01-13T11:39:16.702Z,996.30
2019-01-13T11:40:16.694Z,996.28
2019-01-13T11:41:16.678Z,996.31
2019-01-13T11:42:16.661Z,996.29
2019-01-13T11:43:16.668Z,996.24
2019-01-13T11:44:16.638Z,996.26
2019-01-13T11:45:16.632Z,996.27
2019-01-13T11:46:16.636Z,996.23
2019-01-13T11:47:16.605Z,996.21
2019-01-13T11:48:16.606Z,996.23
2019-01-13T11:49:16.591Z,996.24
2019-01-13T11:50:16.581Z,996.28
2019-01-13T11:51:16.581Z,996.32
2019-01-13T11:52:16.570Z,996.33
2019-01-13T11:53:16.589Z,996.33
2019-01-13T11:54:16.536Z,996.30
2019-01-13T11:55:16.516Z,996.26
2019-01-13T11:56:16.517Z,996.14
2019-01-13T11:57:16.511Z,996.03
2019-01-13T11:58:16.506Z,996.04
2019-01-13T11:59:16.473Z,996.13
2019-01-13T12:00:16.466Z,996.11
2019-01-13T12:01:16.452Z,996.11
2019-01-13T12:02:16.439Z,996.09
2019-01-13T12:03:17.223Z,996.02
2019-01-13T12:04:16.436Z,996.02
2019-01-13T12:05:16.440Z,996.01
2019-01-13T12:06:16.397Z,995.96
2019-01-13T12:07:16.403Z,995.97
2019-01-13T12:08:16.392Z,995.93
2019-01-13T12:09:16.363Z,995.87
2019-01-13T12:10:16.396Z,995.87
2019-01-13T12:11:16.363Z,995.80
2019-01-13T12:12:16.328Z,995.73
2019-01-13T12:13:16.330Z,995.72
2019-01-13T12:14:16.309Z,995.64
2019-01-13T12:15:16.296Z,995.64
2019-01-13T12:16:16.286Z,995.60